sensor_id;sensor_type;location;lat;lon;timestamp;temperature;humidity
14016;DHT22;7083;48.854;9.158;2023-04-28T05:27:04;8.40;99.90
14016;DHT22;7083;48.854;9.158;2023-04-28T05:29:30;10.80;99.90
14016;DHT22;7083;48.854;9.158;2023-04-28T05:31:57;10.80;99.90
14016;DHT22;7083;48.854;9.158;2023-04-28T05:34:24;10.80;99.90
14016;DHT22;7083;48.854;9.158;2023-04-28T05:36:51;10.90;99.90
14016;DHT22;7083;48.854;9.158;2023-04-28T05:39:18;10.90;99.90
14016;DHT22;7083;48.854;9.158;2023-04-28T05:41:46;10.90;99.90
14016;DHT22;7083;48.854;9.158;2023-04-28T05:58:56;10.90;99.90
14016;DHT22;7083;48.854;9.158;2023-04-28T06:01:25;11.10;99.90
14016;DHT22;7083;48.854;9.158;2023-04-28T06:03:52;11.10;99.90
14016;DHT22;7083;48.854;9.158;2023-04-28T06:06:20;11.10;99.90
14016;DHT22;7083;48.854;9.158;2023-04-28T06:21:06;11.20;99.90
14016;DHT22;7083;48.854;9.158;2023-04-28T06:23:32;11.30;99.90
14016;DHT22;7083;48.854;9.158;2023-04-28T06:26:00;11.30;99.90
14016;DHT22;7083;48.854;9.158;2023-04-28T06:28:26;11.30;99.90
14016;DHT22;7083;48.854;9.158;2023-04-28T06:30:53;11.30;99.90
14016;DHT22;7083;48.854;9.158;2023-04-28T06:33:21;11.40;99.90
14016;DHT22;7083;48.854;9.158;2023-04-28T06:35:48;11.40;99.90
14016;DHT22;7083;48.854;9.158;2023-04-28T06:38:14;11.40;99.90
14016;DHT22;7083;48.854;9.158;2023-04-28T06:40:41;11.50;99.90
14016;DHT22;7083;48.854;9.158;2023-04-28T06:43:10;11.50;99.90
14016;DHT22;7083;48.854;9.158;2023-04-28T06:45:37;11.60;99.90
14016;DHT22;7083;48.854;9.158;2023-04-28T06:48:04;11.60;99.90
14016;DHT22;7083;48.854;9.158;2023-04-28T06:50:33;11.60;99.90
14016;DHT22;7083;48.854;9.158;2023-04-28T06:53:00;11.70;99.90
14016;DHT22;7083;48.854;9.158;2023-04-28T06:55:28;11.80;99.90
14016;DHT22;7083;48.854;9.158;2023-04-28T06:57:55;11.80;99.90
14016;DHT22;7083;48.854;9.158;2023-04-28T07:00:21;11.90;99.90
14016;DHT22;7083;48.854;9.158;2023-04-28T07:02:48;11.90;99.90
14016;DHT22;7083;48.854;9.158;2023-04-28T07:05:15;11.90;99.90
14016;DHT22;7083;48.854;9.158;2023-04-28T07:07:43;11.90;99.90
14016;DHT22;7083;48.854;9.158;2023-04-28T07:10:10;11.90;99.90
14016;DHT22;7083;48.854;9.158;2023-04-28T07:12:37;12.00;99.90
14016;DHT22;7083;48.854;9.158;2023-04-28T07:15:05;12.00;99.90
14016;DHT22;7083;48.854;9.158;2023-04-28T07:17:32;12.00;99.90
14016;DHT22;7083;48.854;9.158;2023-04-28T07:19:58;12.00;99.90
14016;DHT22;7083;48.854;9.158;2023-04-28T07:22:25;12.00;99.90
14016;DHT22;7083;48.854;9.158;2023-04-28T07:24:53;12.10;99.90
14016;DHT22;7083;48.854;9.158;2023-04-28T07:32:14;12.10;99.90
14016;DHT22;7083;48.854;9.158;2023-04-28T07:34:41;12.10;99.90
14016;DHT22;7083;48.854;9.158;2023-04-28T08:51:00;12.10;99.90
14016;DHT22;7083;48.854;9.158;2023-04-28T08:53:27;12.50;99.90
14016;DHT22;7083;48.854;9.158;2023-04-28T08:55:55;12.70;99.90
14016;DHT22;7083;48.854;9.158;2023-04-28T08:58:22;12.80;99.90
14016;DHT22;7083;48.854;9.158;2023-04-28T09:00:50;13.00;99.90
14016;DHT22;7083;48.854;9.158;2023-04-28T09:03:17;13.20;99.90
14016;DHT22;7083;48.854;9.158;2023-04-28T09:05:44;13.30;99.90
14016;DHT22;7083;48.854;9.158;2023-04-28T09:08:12;13.40;99.90
14016;DHT22;7083;48.854;9.158;2023-04-28T09:10:39;13.40;99.90
14016;DHT22;7083;48.854;9.158;2023-04-28T09:13:06;13.40;99.90
14016;DHT22;7083;48.854;9.158;2023-04-28T09:15:34;13.40;99.90
14016;DHT22;7083;48.854;9.158;2023-04-28T09:18:02;13.40;99.90
14016;DHT22;7083;48.854;9.158;2023-04-28T09:20:30;13.40;99.90
14016;DHT22;7083;48.854;9.158;2023-04-28T09:23:14;13.50;99.90
14016;DHT22;7083;48.854;9.158;2023-04-28T09:25:55;13.50;99.90
14016;DHT22;7083;48.854;9.158;2023-04-28T09:28:22;13.50;99.90
14016;DHT22;7083;48.854;9.158;2023-04-28T09:30:49;13.60;99.90
14016;DHT22;7083;48.854;9.158;2023-04-28T09:33:15;13.60;99.90
14016;DHT22;7083;48.854;9.158;2023-04-28T09:35:42;13.70;99.90
14016;DHT22;7083;48.854;9.158;2023-04-28T09:38:12;13.60;99.90
14016;DHT22;7083;48.854;9.158;2023-04-28T09:40:56;13.60;99.90
14016;DHT22;7083;48.854;9.158;2023-04-28T09:53:22;13.50;99.90
14016;DHT22;7083;48.854;9.158;2023-04-28T09:55:49;13.90;99.90
14016;DHT22;7083;48.854;9.158;2023-04-28T09:58:19;14.00;99.90
14016;DHT22;7083;48.854;9.158;2023-04-28T10:00:51;14.20;99.90
14016;DHT22;7083;48.854;9.158;2023-04-28T10:03:18;14.40;99.90
14016;DHT22;7083;48.854;9.158;2023-04-28T10:05:47;14.60;99.90
14016;DHT22;7083;48.854;9.158;2023-04-28T10:08:14;14.70;99.90
14016;DHT22;7083;48.854;9.158;2023-04-28T10:10:42;14.80;99.90
14016;DHT22;7083;48.854;9.158;2023-04-28T10:13:09;14.90;99.90
14016;DHT22;7083;48.854;9.158;2023-04-28T10:15:38;15.00;99.90
14016;DHT22;7083;48.854;9.158;2023-04-28T10:18:06;15.10;99.90
14016;DHT22;7083;48.854;9.158;2023-04-28T10:20:34;15.10;99.90
14016;DHT22;7083;48.854;9.158;2023-04-28T10:23:24;15.10;99.90
14016;DHT22;7083;48.854;9.158;2023-04-28T10:25:56;15.20;99.90
14016;DHT22;7083;48.854;9.158;2023-04-28T10:28:24;15.40;99.90
14016;DHT22;7083;48.854;9.158;2023-04-28T10:31:12;15.80;99.90
14016;DHT22;7083;48.854;9.158;2023-04-28T10:33:40;16.30;99.90
14016;DHT22;7083;48.854;9.158;2023-04-28T10:36:07;16.60;99.90
14016;DHT22;7083;48.854;9.158;2023-04-28T10:38:34;16.90;99.90
14016;DHT22;7083;48.854;9.158;2023-04-28T10:41:02;17.00;99.90
14016;DHT22;7083;48.854;9.158;2023-04-28T10:43:36;16.90;99.90
14016;DHT22;7083;48.854;9.158;2023-04-28T11:24:34;16.90;99.90
14016;DHT22;7083;48.854;9.158;2023-04-28T12:01:46;16.00;99.90
14016;DHT22;7083;48.854;9.158;2023-04-28T12:04:14;15.40;99.90
14016;DHT22;7083;48.854;9.158;2023-04-28T12:11:54;15.30;99.90
14016;DHT22;7083;48.854;9.158;2023-04-28T12:14:22;15.50;99.90
14016;DHT22;7083;48.854;9.158;2023-04-28T12:16:48;15.50;99.90
14016;DHT22;7083;48.854;9.158;2023-04-28T12:19:16;15.50;99.90
14016;DHT22;7083;48.854;9.158;2023-04-28T12:21:43;15.50;99.90
14016;DHT22;7083;48.854;9.158;2023-04-28T12:41:45;15.50;99.90
14016;DHT22;7083;48.854;9.158;2023-04-28T12:44:12;15.70;99.90
14016;DHT22;7083;48.854;9.158;2023-04-28T12:46:40;15.50;99.90
14016;DHT22;7083;48.854;9.158;2023-04-28T14:27:35;15.30;99.90
14016;DHT22;7083;48.854;9.158;2023-04-28T14:30:03;15.80;99.90
14016;DHT22;7083;48.854;9.158;2023-04-28T14:32:29;15.80;99.90
14016;DHT22;7083;48.854;9.158;2023-04-28T14:34:56;15.80;99.90
14016;DHT22;7083;48.854;9.158;2023-04-28T14:37:23;15.70;99.90
14016;DHT22;7083;48.854;9.158;2023-04-28T14:39:50;15.60;99.90
14016;DHT22;7083;48.854;9.158;2023-04-28T14:42:18;15.60;99.90
14016;DHT22;7083;48.854;9.158;2023-04-28T14:44:45;15.50;99.90
14016;DHT22;7083;48.854;9.158;2023-04-28T14:47:12;15.40;99.90
14016;DHT22;7083;48.854;9.158;2023-04-28T14:49:39;15.40;99.90
14016;DHT22;7083;48.854;9.158;2023-04-28T14:52:05;15.30;99.90
14016;DHT22;7083;48.854;9.158;2023-04-28T14:54:32;15.40;99.90
14016;DHT22;7083;48.854;9.158;2023-04-28T14:56:59;15.50;99.90
14016;DHT22;7083;48.854;9.158;2023-04-28T14:59:27;15.50;99.90
14016;DHT22;7083;48.854;9.158;2023-04-28T15:01:54;15.60;99.90
14016;DHT22;7083;48.854;9.158;2023-04-28T15:04:21;15.60;99.90
14016;DHT22;7083;48.854;9.158;2023-04-28T15:06:53;15.70;99.90
14016;DHT22;7083;48.854;9.158;2023-04-28T15:09:19;15.70;99.90
14016;DHT22;7083;48.854;9.158;2023-04-28T15:11:46;15.70;99.90
14016;DHT22;7083;48.854;9.158;2023-04-28T15:14:13;15.60;99.90
14016;DHT22;7083;48.854;9.158;2023-04-28T15:16:41;15.60;99.90
14016;DHT22;7083;48.854;9.158;2023-04-28T15:19:08;15.50;99.90
14016;DHT22;7083;48.854;9.158;2023-04-28T15:21:35;15.40;99.90
14016;DHT22;7083;48.854;9.158;2023-04-28T15:24:02;15.40;99.90
14016;DHT22;7083;48.854;9.158;2023-04-28T15:26:28;15.50;99.90
14016;DHT22;7083;48.854;9.158;2023-04-28T15:28:55;15.60;99.90
14016;DHT22;7083;48.854;9.158;2023-04-28T15:31:23;15.80;99.90
14016;DHT22;7083;48.854;9.158;2023-04-28T15:33:51;15.70;99.90
14016;DHT22;7083;48.854;9.158;2023-04-28T15:36:18;15.90;99.90
14016;DHT22;7083;48.854;9.158;2023-04-28T15:38:46;15.90;99.90
14016;DHT22;7083;48.854;9.158;2023-04-28T15:41:13;15.90;99.90
14016;DHT22;7083;48.854;9.158;2023-04-28T15:43:40;15.90;99.90
14016;DHT22;7083;48.854;9.158;2023-04-28T15:46:08;15.80;99.90
14016;DHT22;7083;48.854;9.158;2023-04-28T15:48:35;15.70;99.90
14016;DHT22;7083;48.854;9.158;2023-04-28T15:51:04;16.60;99.90
14016;DHT22;7083;48.854;9.158;2023-04-28T15:53:31;15.60;99.90
14016;DHT22;7083;48.854;9.158;2023-04-28T15:55:58;15.50;99.90
14016;DHT22;7083;48.854;9.158;2023-04-28T15:58:25;15.50;99.90
14016;DHT22;7083;48.854;9.158;2023-04-28T16:00:52;15.40;99.90
14016;DHT22;7083;48.854;9.158;2023-04-28T16:03:18;15.40;99.90
14016;DHT22;7083;48.854;9.158;2023-04-28T16:05:45;15.30;99.90
14016;DHT22;7083;48.854;9.158;2023-04-28T16:08:13;15.20;99.90
14016;DHT22;7083;48.854;9.158;2023-04-28T16:10:40;15.20;99.90
14016;DHT22;7083;48.854;9.158;2023-04-28T16:13:07;15.10;99.90
14016;DHT22;7083;48.854;9.158;2023-04-28T16:15:35;15.10;99.90
14016;DHT22;7083;48.854;9.158;2023-04-28T16:18:03;15.00;99.90
14016;DHT22;7083;48.854;9.158;2023-04-28T16:20:29;14.90;99.90
14016;DHT22;7083;48.854;9.158;2023-04-28T16:22:58;14.80;99.90
14016;DHT22;7083;48.854;9.158;2023-04-28T16:25:26;14.80;99.90
14016;DHT22;7083;48.854;9.158;2023-04-28T16:27:52;14.80;99.90
14016;DHT22;7083;48.854;9.158;2023-04-28T16:30:19;14.70;99.90
14016;DHT22;7083;48.854;9.158;2023-04-28T16:32:46;14.60;99.90
14016;DHT22;7083;48.854;9.158;2023-04-28T16:35:13;15.60;99.90
14016;DHT22;7083;48.854;9.158;2023-04-28T16:37:40;14.60;99.90
14016;DHT22;7083;48.854;9.158;2023-04-28T16:40:08;15.70;99.90
14016;DHT22;7083;48.854;9.158;2023-04-28T16:42:36;14.50;99.90
14016;DHT22;7083;48.854;9.158;2023-04-28T16:45:03;15.00;99.90
14016;DHT22;7083;48.854;9.158;2023-04-28T16:47:41;14.60;99.90
14016;DHT22;7083;48.854;9.158;2023-04-28T16:50:28;14.70;99.90
14016;DHT22;7083;48.854;9.158;2023-04-28T16:52:55;14.80;99.90
14016;DHT22;7083;48.854;9.158;2023-04-28T16:55:25;14.70;99.90
14016;DHT22;7083;48.854;9.158;2023-04-28T16:57:53;14.70;99.90
14016;DHT22;7083;48.854;9.158;2023-04-28T17:00:20;14.80;99.90
14016;DHT22;7083;48.854;9.158;2023-04-28T17:02:47;14.90;99.90
14016;DHT22;7083;48.854;9.158;2023-04-28T17:05:14;14.90;99.90
14016;DHT22;7083;48.854;9.158;2023-04-28T17:07:40;14.90;99.90
14016;DHT22;7083;48.854;9.158;2023-04-28T17:10:08;14.90;99.90
14016;DHT22;7083;48.854;9.158;2023-04-28T17:12:34;14.90;99.90
14016;DHT22;7083;48.854;9.158;2023-04-28T17:15:03;14.90;99.90
14016;DHT22;7083;48.854;9.158;2023-04-28T17:17:30;15.00;99.90
14016;DHT22;7083;48.854;9.158;2023-04-28T17:19:58;15.00;99.90
14016;DHT22;7083;48.854;9.158;2023-04-28T17:22:26;15.80;99.90
14016;DHT22;7083;48.854;9.158;2023-04-28T17:24:54;15.90;99.90
14016;DHT22;7083;48.854;9.158;2023-04-28T17:27:21;15.10;99.90
14016;DHT22;7083;48.854;9.158;2023-04-28T17:29:48;15.10;99.90
14016;DHT22;7083;48.854;9.158;2023-04-28T17:32:17;15.00;99.90
14016;DHT22;7083;48.854;9.158;2023-04-28T17:34:43;15.10;99.90
14016;DHT22;7083;48.854;9.158;2023-04-28T17:37:10;15.10;99.90
14016;DHT22;7083;48.854;9.158;2023-04-28T17:39:37;15.00;99.90
14016;DHT22;7083;48.854;9.158;2023-04-28T17:42:03;15.00;99.90
14016;DHT22;7083;48.854;9.158;2023-04-28T17:44:30;14.90;99.90
14016;DHT22;7083;48.854;9.158;2023-04-28T17:46:57;14.90;99.90
14016;DHT22;7083;48.854;9.158;2023-04-28T17:49:25;14.80;99.90
14016;DHT22;7083;48.854;9.158;2023-04-28T17:51:52;14.80;99.90
14016;DHT22;7083;48.854;9.158;2023-04-28T17:54:19;14.70;99.90
14016;DHT22;7083;48.854;9.158;2023-04-28T17:56:45;14.60;99.90
14016;DHT22;7083;48.854;9.158;2023-04-28T17:59:12;14.60;99.90
14016;DHT22;7083;48.854;9.158;2023-04-28T18:01:40;14.50;99.90
14016;DHT22;7083;48.854;9.158;2023-04-28T18:04:07;14.40;99.90
14016;DHT22;7083;48.854;9.158;2023-04-28T18:06:35;14.30;99.90
14016;DHT22;7083;48.854;9.158;2023-04-28T18:09:02;14.20;99.90
14016;DHT22;7083;48.854;9.158;2023-04-28T18:11:29;14.10;99.90
14016;DHT22;7083;48.854;9.158;2023-04-28T18:13:56;14.00;99.90
14016;DHT22;7083;48.854;9.158;2023-04-28T18:16:23;13.90;99.90
14016;DHT22;7083;48.854;9.158;2023-04-28T18:18:50;13.80;99.90
14016;DHT22;7083;48.854;9.158;2023-04-28T18:21:17;13.70;99.90
14016;DHT22;7083;48.854;9.158;2023-04-28T18:23:45;13.60;99.90
14016;DHT22;7083;48.854;9.158;2023-04-28T18:26:12;13.40;99.90
14016;DHT22;7083;48.854;9.158;2023-04-28T18:28:38;13.40;99.90
14016;DHT22;7083;48.854;9.158;2023-04-28T18:31:05;13.20;99.90
14016;DHT22;7083;48.854;9.158;2023-04-28T18:33:32;13.20;99.90
14016;DHT22;7083;48.854;9.158;2023-04-28T18:35:59;13.10;99.90
14016;DHT22;7083;48.854;9.158;2023-04-28T18:38:28;13.00;99.90
14016;DHT22;7083;48.854;9.158;2023-04-28T18:40:57;13.00;99.90
14016;DHT22;7083;48.854;9.158;2023-04-28T18:43:24;12.90;99.90
14016;DHT22;7083;48.854;9.158;2023-04-28T18:45:52;12.80;99.90
14016;DHT22;7083;48.854;9.158;2023-04-28T18:48:20;12.80;99.90
14016;DHT22;7083;48.854;9.158;2023-04-28T18:50:48;12.70;99.90
14016;DHT22;7083;48.854;9.158;2023-04-28T18:53:16;12.70;99.90
14016;DHT22;7083;48.854;9.158;2023-04-28T18:55:43;12.60;99.90
14016;DHT22;7083;48.854;9.158;2023-04-28T18:58:11;12.50;99.90
14016;DHT22;7083;48.854;9.158;2023-04-28T19:00:39;12.50;99.90
14016;DHT22;7083;48.854;9.158;2023-04-28T19:03:06;12.40;99.90
14016;DHT22;7083;48.854;9.158;2023-04-28T19:05:32;12.40;99.90
14016;DHT22;7083;48.854;9.158;2023-04-28T19:07:59;12.30;99.90
14016;DHT22;7083;48.854;9.158;2023-04-28T19:10:26;12.20;99.90
14016;DHT22;7083;48.854;9.158;2023-04-28T19:12:53;12.10;99.90
14016;DHT22;7083;48.854;9.158;2023-04-28T19:15:21;12.00;99.90
14016;DHT22;7083;48.854;9.158;2023-04-28T19:17:48;12.00;99.90
14016;DHT22;7083;48.854;9.158;2023-04-28T19:20:15;11.90;99.90
14016;DHT22;7083;48.854;9.158;2023-04-28T19:22:42;11.90;99.90
14016;DHT22;7083;48.854;9.158;2023-04-28T19:25:10;11.80;99.90
14016;DHT22;7083;48.854;9.158;2023-04-28T19:27:38;11.80;99.90
14016;DHT22;7083;48.854;9.158;2023-04-28T19:30:08;11.70;99.90
14016;DHT22;7083;48.854;9.158;2023-04-28T19:32:36;11.60;99.90
14016;DHT22;7083;48.854;9.158;2023-04-28T19:35:04;11.60;99.90
14016;DHT22;7083;48.854;9.158;2023-04-28T19:37:31;11.60;99.90
14016;DHT22;7083;48.854;9.158;2023-04-28T19:39:58;11.50;99.90
14016;DHT22;7083;48.854;9.158;2023-04-28T19:42:25;11.50;99.90
14016;DHT22;7083;48.854;9.158;2023-04-28T19:44:53;11.50;99.90
14016;DHT22;7083;48.854;9.158;2023-04-28T19:47:24;11.50;99.90
14016;DHT22;7083;48.854;9.158;2023-04-28T19:49:52;11.50;99.90
14016;DHT22;7083;48.854;9.158;2023-04-28T19:52:20;11.50;99.90
14016;DHT22;7083;48.854;9.158;2023-04-28T19:54:47;11.60;99.90
14016;DHT22;7083;48.854;9.158;2023-04-28T19:57:13;11.50;99.90
14016;DHT22;7083;48.854;9.158;2023-04-28T19:59:40;11.50;99.90
14016;DHT22;7083;48.854;9.158;2023-04-28T20:02:07;11.50;99.90
14016;DHT22;7083;48.854;9.158;2023-04-28T20:04:34;11.50;99.90
14016;DHT22;7083;48.854;9.158;2023-04-28T20:07:03;11.40;99.90
14016;DHT22;7083;48.854;9.158;2023-04-28T20:09:31;11.40;99.90
14016;DHT22;7083;48.854;9.158;2023-04-28T20:11:59;11.30;99.90
14016;DHT22;7083;48.854;9.158;2023-04-28T20:14:27;11.30;99.90
14016;DHT22;7083;48.854;9.158;2023-04-28T20:16:54;11.30;99.90
14016;DHT22;7083;48.854;9.158;2023-04-28T20:19:21;11.20;99.90
14016;DHT22;7083;48.854;9.158;2023-04-28T20:21:48;11.20;99.90
14016;DHT22;7083;48.854;9.158;2023-04-28T20:24:16;11.10;99.90
14016;DHT22;7083;48.854;9.158;2023-04-28T20:26:43;11.10;99.90
14016;DHT22;7083;48.854;9.158;2023-04-28T20:29:09;11.00;99.90
14016;DHT22;7083;48.854;9.158;2023-04-28T20:31:36;11.00;99.90
14016;DHT22;7083;48.854;9.158;2023-04-28T20:34:03;11.00;99.90
14016;DHT22;7083;48.854;9.158;2023-04-28T20:36:29;10.90;99.90
14016;DHT22;7083;48.854;9.158;2023-04-28T20:38:58;10.90;99.90
14016;DHT22;7083;48.854;9.158;2023-04-28T20:41:26;10.90;99.90
14016;DHT22;7083;48.854;9.158;2023-04-28T20:43:52;10.90;99.90
14016;DHT22;7083;48.854;9.158;2023-04-28T20:46:19;10.80;99.90
14016;DHT22;7083;48.854;9.158;2023-04-28T20:48:46;10.80;99.90
14016;DHT22;7083;48.854;9.158;2023-04-28T20:51:12;10.90;99.90
14016;DHT22;7083;48.854;9.158;2023-04-28T20:53:39;10.90;99.90
14016;DHT22;7083;48.854;9.158;2023-04-28T20:56:07;10.90;99.90
14016;DHT22;7083;48.854;9.158;2023-04-28T20:58:35;10.90;99.90
14016;DHT22;7083;48.854;9.158;2023-04-28T21:01:02;11.00;99.90
14016;DHT22;7083;48.854;9.158;2023-04-28T21:03:29;11.10;99.90
14016;DHT22;7083;48.854;9.158;2023-04-28T21:05:55;11.10;99.90
14016;DHT22;7083;48.854;9.158;2023-04-28T21:08:22;11.10;99.90
14016;DHT22;7083;48.854;9.158;2023-04-28T21:10:49;11.20;99.90
14016;DHT22;7083;48.854;9.158;2023-04-28T21:13:15;11.20;99.90
14016;DHT22;7083;48.854;9.158;2023-04-28T21:15:43;11.20;99.90
14016;DHT22;7083;48.854;9.158;2023-04-28T21:18:10;11.30;99.90
14016;DHT22;7083;48.854;9.158;2023-04-28T21:20:37;11.30;99.90
14016;DHT22;7083;48.854;9.158;2023-04-28T21:23:03;11.40;99.90
14016;DHT22;7083;48.854;9.158;2023-04-28T21:25:31;11.40;99.90
14016;DHT22;7083;48.854;9.158;2023-04-28T21:27:58;11.40;99.90
14016;DHT22;7083;48.854;9.158;2023-04-28T21:30:25;11.40;99.90
14016;DHT22;7083;48.854;9.158;2023-04-28T21:32:54;11.40;99.90
14016;DHT22;7083;48.854;9.158;2023-04-28T21:35:21;11.40;99.90
14016;DHT22;7083;48.854;9.158;2023-04-28T21:37:47;11.40;99.90
14016;DHT22;7083;48.854;9.158;2023-04-28T21:40:14;11.30;99.90
14016;DHT22;7083;48.854;9.158;2023-04-28T21:42:41;11.30;99.90
14016;DHT22;7083;48.854;9.158;2023-04-28T21:45:08;11.20;99.90
14016;DHT22;7083;48.854;9.158;2023-04-28T21:47:35;11.10;99.90
14016;DHT22;7083;48.854;9.158;2023-04-28T21:50:04;11.10;99.90
14016;DHT22;7083;48.854;9.158;2023-04-28T21:52:31;11.20;99.90
14016;DHT22;7083;48.854;9.158;2023-04-28T21:54:58;11.20;99.90
14016;DHT22;7083;48.854;9.158;2023-04-28T21:57:24;11.20;99.90
14016;DHT22;7083;48.854;9.158;2023-04-28T21:59:51;11.30;99.90
14016;DHT22;7083;48.854;9.158;2023-04-28T22:02:18;11.30;99.90
14016;DHT22;7083;48.854;9.158;2023-04-28T22:04:45;11.20;99.90
14016;DHT22;7083;48.854;9.158;2023-04-28T22:07:13;11.40;99.90
14016;DHT22;7083;48.854;9.158;2023-04-28T22:09:39;11.40;99.90
14016;DHT22;7083;48.854;9.158;2023-04-28T22:12:06;11.50;99.90
14016;DHT22;7083;48.854;9.158;2023-04-28T22:14:33;11.60;99.90
14016;DHT22;7083;48.854;9.158;2023-04-28T22:16:59;11.60;99.90
14016;DHT22;7083;48.854;9.158;2023-04-28T22:19:26;11.60;99.90
14016;DHT22;7083;48.854;9.158;2023-04-28T22:21:53;11.60;99.90
14016;DHT22;7083;48.854;9.158;2023-04-28T22:24:21;11.70;99.90
14016;DHT22;7083;48.854;9.158;2023-04-28T22:26:48;11.70;99.90
14016;DHT22;7083;48.854;9.158;2023-04-28T22:29:14;11.70;99.90
14016;DHT22;7083;48.854;9.158;2023-04-28T22:31:41;11.70;99.90
14016;DHT22;7083;48.854;9.158;2023-04-28T22:34:07;11.70;99.90
14016;DHT22;7083;48.854;9.158;2023-04-28T22:36:35;11.70;99.90
14016;DHT22;7083;48.854;9.158;2023-04-28T22:39:02;11.70;99.90
14016;DHT22;7083;48.854;9.158;2023-04-28T22:41:31;11.70;99.90
14016;DHT22;7083;48.854;9.158;2023-04-28T22:43:57;11.70;99.90
14016;DHT22;7083;48.854;9.158;2023-04-28T22:46:24;11.70;99.90
14016;DHT22;7083;48.854;9.158;2023-04-28T22:48:51;11.80;99.90
14016;DHT22;7083;48.854;9.158;2023-04-28T22:51:18;11.80;99.90
14016;DHT22;7083;48.854;9.158;2023-04-28T22:53:45;11.80;99.90
14016;DHT22;7083;48.854;9.158;2023-04-28T22:56:12;11.90;99.90
14016;DHT22;7083;48.854;9.158;2023-04-28T22:58:40;11.80;99.90
14016;DHT22;7083;48.854;9.158;2023-04-28T23:01:06;11.80;99.90
14016;DHT22;7083;48.854;9.158;2023-04-28T23:03:33;11.80;99.90
14016;DHT22;7083;48.854;9.158;2023-04-28T23:06:00;11.80;99.90
14016;DHT22;7083;48.854;9.158;2023-04-28T23:08:26;11.80;99.90
14016;DHT22;7083;48.854;9.158;2023-04-28T23:10:53;11.80;99.90
14016;DHT22;7083;48.854;9.158;2023-04-28T23:13:20;11.80;99.90
14016;DHT22;7083;48.854;9.158;2023-04-28T23:15:48;11.90;99.90
14016;DHT22;7083;48.854;9.158;2023-04-28T23:18:15;11.90;99.90
14016;DHT22;7083;48.854;9.158;2023-04-28T23:20:42;11.90;99.90
14016;DHT22;7083;48.854;9.158;2023-04-28T23:23:08;11.90;99.90
14016;DHT22;7083;48.854;9.158;2023-04-28T23:25:35;11.90;99.90
14016;DHT22;7083;48.854;9.158;2023-04-28T23:28:02;11.90;99.90
14016;DHT22;7083;48.854;9.158;2023-04-28T23:30:28;11.90;99.90
14016;DHT22;7083;48.854;9.158;2023-04-28T23:32:56;11.90;99.90
14016;DHT22;7083;48.854;9.158;2023-04-28T23:35:23;11.90;99.90
14016;DHT22;7083;48.854;9.158;2023-04-28T23:37:50;11.80;99.90
14016;DHT22;7083;48.854;9.158;2023-04-28T23:40:16;11.80;99.90
14016;DHT22;7083;48.854;9.158;2023-04-28T23:42:43;11.80;99.90
14016;DHT22;7083;48.854;9.158;2023-04-28T23:45:10;11.80;99.90
14016;DHT22;7083;48.854;9.158;2023-04-28T23:47:37;11.80;99.90
14016;DHT22;7083;48.854;9.158;2023-04-28T23:50:07;11.80;99.90
14016;DHT22;7083;48.854;9.158;2023-04-28T23:52:34;11.80;99.90
14016;DHT22;7083;48.854;9.158;2023-04-28T23:55:01;11.80;99.90
14016;DHT22;7083;48.854;9.158;2023-04-28T23:57:27;11.80;99.90
14016;DHT22;7083;48.854;9.158;2023-04-28T23:59:57;11.80;99.90
